Airport View

Enter AWOS ICAO identifier for current METAR.

ex. KFNL

KBIE 210015Z AUTO 15012G15KT 10SM BKN016 OVC023 24/21 A2989 RMK AO2 T02380209

21 Sep 2019 00:24

Frequency: 125.325

Phone: 402-228-3229

Other Area AWOS: KMYZ - KLNK - KHJH - KAFK

TAF KLNK 202325Z 2100/2124 17015G25KT P6SM VCSH BKN040 FM210200 17012G20KT P6SM BKN025 FM211100 19010G20KT P6SM OVC015 FM211800 22013KT P6SM BKN050